Monkey Run, Arkansas
Current Conditions -  °F | °C
As of 6:53 AM on Saturday 25 Oct 2014 (Local Time) from KBPK Reporting Station
Clear Clear  
Wind Chill: 60°   Ceiling: Unl
Heat Index: 60°   Visibility: 7mi
Dew Point: 58°   Wind: 5mph
Humidity: 93%   Direction: 240°WSW
Pressure: 30.07"   Gusts: NA
Location:  36.3299°N, 92.4805°W
Report Text: KBPK 251153Z AUTO 24004KT 7SM CLR 16/14 A3007 RMK AO2 SLP177 T01560144 10167 20144 51005
Loading
Personal Weather Stations






























Interactive Weather Map
Tropical Storm Tracking
New forecast layout! Learn more

10-Day Weather Forecast

Advertisements
Track Severe Weather on mobile